sensor_id;sensor_type;location;lat;lon;timestamp;P1;durP1;ratioP1;P2;durP2;ratioP2
43996;SDS011;34318;45.818;15.964;2023-08-12T00:01:11;2.75;;;2.55;;
43996;SDS011;34318;45.818;15.964;2023-08-12T00:03:38;2.75;;;2.55;;
43996;SDS011;34318;45.818;15.964;2023-08-12T00:06:06;3.88;;;2.70;;
43996;SDS011;34318;45.818;15.964;2023-08-12T00:08:33;2.63;;;2.42;;
43996;SDS011;34318;45.818;15.964;2023-08-12T00:11:00;3.97;;;2.90;;
43996;SDS011;34318;45.818;15.964;2023-08-12T00:13:28;3.40;;;2.95;;
43996;SDS011;34318;45.818;15.964;2023-08-12T00:15:55;2.65;;;2.45;;
43996;SDS011;34318;45.818;15.964;2023-08-12T00:18:22;2.80;;;2.60;;
43996;SDS011;34318;45.818;15.964;2023-08-12T00:20:50;2.97;;;2.67;;
43996;SDS011;34318;45.818;15.964;2023-08-12T00:23:17;4.72;;;2.80;;
43996;SDS011;34318;45.818;15.964;2023-08-12T00:25:45;3.20;;;2.60;;
43996;SDS011;34318;45.818;15.964;2023-08-12T00:28:12;2.58;;;2.38;;
43996;SDS011;34318;45.818;15.964;2023-08-12T00:30:39;2.90;;;2.60;;
43996;SDS011;34318;45.818;15.964;2023-08-12T00:33:06;2.80;;;2.60;;
43996;SDS011;34318;45.818;15.964;2023-08-12T00:35:34;3.67;;;2.50;;
43996;SDS011;34318;45.818;15.964;2023-08-12T00:38:01;2.88;;;2.67;;
43996;SDS011;34318;45.818;15.964;2023-08-12T00:40:28;2.22;;;2.08;;
43996;SDS011;34318;45.818;15.964;2023-08-12T00:42:56;5.68;;;2.80;;
43996;SDS011;34318;45.818;15.964;2023-08-12T00:45:23;2.70;;;2.30;;
43996;SDS011;34318;45.818;15.964;2023-08-12T00:47:50;2.42;;;2.22;;
43996;SDS011;34318;45.818;15.964;2023-08-12T00:50:18;2.58;;;2.30;;
43996;SDS011;34318;45.818;15.964;2023-08-12T00:52:45;2.38;;;2.28;;
43996;SDS011;34318;45.818;15.964;2023-08-12T00:55:12;2.97;;;2.78;;
43996;SDS011;34318;45.818;15.964;2023-08-12T00:57:40;2.78;;;2.58;;
43996;SDS011;34318;45.818;15.964;2023-08-12T01:00:07;2.35;;;2.20;;
43996;SDS011;34318;45.818;15.964;2023-08-12T01:02:35;2.33;;;2.22;;
43996;SDS011;34318;45.818;15.964;2023-08-12T01:05:03;4.78;;;2.80;;
43996;SDS011;34318;45.818;15.964;2023-08-12T01:07:30;2.70;;;2.42;;
43996;SDS011;34318;45.818;15.964;2023-08-12T01:09:57;2.83;;;2.63;;
43996;SDS011;34318;45.818;15.964;2023-08-12T01:15:04;2.58;;;2.38;;
43996;SDS011;34318;45.818;15.964;2023-08-12T01:17:36;2.35;;;2.15;;
43996;SDS011;34318;45.818;15.964;2023-08-12T01:20:05;2.53;;;2.30;;
43996;SDS011;34318;45.818;15.964;2023-08-12T01:22:38;2.10;;;2.00;;
43996;SDS011;34318;45.818;15.964;2023-08-12T01:25:06;2.30;;;2.10;;
43996;SDS011;34318;45.818;15.964;2023-08-12T01:27:36;2.13;;;2.03;;
43996;SDS011;34318;45.818;15.964;2023-08-12T01:30:04;2.50;;;2.30;;
43996;SDS011;34318;45.818;15.964;2023-08-12T01:37:34;3.60;;;2.40;;
43996;SDS011;34318;45.818;15.964;2023-08-12T01:40:02;2.80;;;2.30;;
43996;SDS011;34318;45.818;15.964;2023-08-12T01:42:33;2.33;;;2.22;;
43996;SDS011;34318;45.818;15.964;2023-08-12T01:45:01;2.38;;;2.17;;
43996;SDS011;34318;45.818;15.964;2023-08-12T01:47:28;2.50;;;2.30;;
43996;SDS011;34318;45.818;15.964;2023-08-12T01:49:56;3.92;;;2.20;;
43996;SDS011;34318;45.818;15.964;2023-08-12T01:52:23;3.17;;;2.47;;
43996;SDS011;34318;45.818;15.964;2023-08-12T01:54:51;2.50;;;2.30;;
43996;SDS011;34318;45.818;15.964;2023-08-12T01:57:18;3.25;;;2.83;;
43996;SDS011;34318;45.818;15.964;2023-08-12T01:59:45;2.53;;;2.33;;
43996;SDS011;34318;45.818;15.964;2023-08-12T02:02:13;2.50;;;2.30;;
43996;SDS011;34318;45.818;15.964;2023-08-12T02:04:40;2.58;;;2.38;;
43996;SDS011;34318;45.818;15.964;2023-08-12T02:07:09;3.58;;;2.55;;
43996;SDS011;34318;45.818;15.964;2023-08-12T02:09:37;3.17;;;2.70;;
43996;SDS011;34318;45.818;15.964;2023-08-12T02:12:04;2.40;;;2.20;;
43996;SDS011;34318;45.818;15.964;2023-08-12T02:14:31;3.35;;;2.63;;
43996;SDS011;34318;45.818;15.964;2023-08-12T02:16:58;2.42;;;2.22;;
43996;SDS011;34318;45.818;15.964;2023-08-12T02:19:26;3.00;;;2.58;;
43996;SDS011;34318;45.818;15.964;2023-08-12T02:21:53;2.33;;;2.20;;
43996;SDS011;34318;45.818;15.964;2023-08-12T02:24:20;2.78;;;2.58;;
43996;SDS011;34318;45.818;15.964;2023-08-12T02:26:48;3.00;;;2.70;;
43996;SDS011;34318;45.818;15.964;2023-08-12T02:29:15;2.50;;;2.30;;
43996;SDS011;34318;45.818;15.964;2023-08-12T02:31:42;2.58;;;2.38;;
43996;SDS011;34318;45.818;15.964;2023-08-12T02:34:09;2.88;;;2.58;;
43996;SDS011;34318;45.818;15.964;2023-08-12T02:36:36;3.53;;;2.60;;
43996;SDS011;34318;45.818;15.964;2023-08-12T02:39:04;2.65;;;2.28;;
43996;SDS011;34318;45.818;15.964;2023-08-12T02:41:31;2.53;;;2.33;;
43996;SDS011;34318;45.818;15.964;2023-08-12T02:43:58;7.03;;;2.83;;
43996;SDS011;34318;45.818;15.964;2023-08-12T02:46:25;2.40;;;2.20;;
43996;SDS011;34318;45.818;15.964;2023-08-12T02:48:53;2.60;;;2.40;;
43996;SDS011;34318;45.818;15.964;2023-08-12T02:51:20;2.55;;;2.35;;
43996;SDS011;34318;45.818;15.964;2023-08-12T02:53:47;2.97;;;2.67;;
43996;SDS011;34318;45.818;15.964;2023-08-12T02:56:15;4.97;;;2.20;;
43996;SDS011;34318;45.818;15.964;2023-08-12T02:58:42;3.60;;;2.47;;
43996;SDS011;34318;45.818;15.964;2023-08-12T03:01:10;3.90;;;2.88;;
43996;SDS011;34318;45.818;15.964;2023-08-12T03:03:37;2.90;;;2.70;;
43996;SDS011;34318;45.818;15.964;2023-08-12T03:06:05;2.72;;;2.53;;
43996;SDS011;34318;45.818;15.964;2023-08-12T03:08:32;3.03;;;2.38;;
43996;SDS011;34318;45.818;15.964;2023-08-12T03:11:02;2.70;;;2.50;;
43996;SDS011;34318;45.818;15.964;2023-08-12T03:13:30;3.03;;;2.40;;
43996;SDS011;34318;45.818;15.964;2023-08-12T03:15:57;3.28;;;2.50;;
43996;SDS011;34318;45.818;15.964;2023-08-12T03:18:24;4.07;;;2.60;;
43996;SDS011;34318;45.818;15.964;2023-08-12T03:20:52;2.85;;;2.47;;
43996;SDS011;34318;45.818;15.964;2023-08-12T03:23:19;3.00;;;2.70;;
43996;SDS011;34318;45.818;15.964;2023-08-12T03:25:47;3.35;;;2.38;;
43996;SDS011;34318;45.818;15.964;2023-08-12T03:28:16;2.08;;;1.98;;
43996;SDS011;34318;45.818;15.964;2023-08-12T03:30:49;2.42;;;2.22;;
43996;SDS011;34318;45.818;15.964;2023-08-12T03:33:17;2.60;;;2.40;;
43996;SDS011;34318;45.818;15.964;2023-08-12T03:35:45;5.13;;;2.35;;
43996;SDS011;34318;45.818;15.964;2023-08-12T03:38:13;2.78;;;2.58;;
43996;SDS011;34318;45.818;15.964;2023-08-12T03:40:40;2.97;;;2.55;;
43996;SDS011;34318;45.818;15.964;2023-08-12T03:43:08;3.10;;;2.28;;
43996;SDS011;34318;45.818;15.964;2023-08-12T03:45:44;2.80;;;2.60;;
43996;SDS011;34318;45.818;15.964;2023-08-12T03:48:12;2.38;;;2.28;;
43996;SDS011;34318;45.818;15.964;2023-08-12T03:50:39;2.45;;;2.25;;
43996;SDS011;34318;45.818;15.964;2023-08-12T03:53:07;2.55;;;2.35;;
43996;SDS011;34318;45.818;15.964;2023-08-12T03:55:35;2.63;;;2.42;;
43996;SDS011;34318;45.818;15.964;2023-08-12T03:58:02;2.33;;;2.22;;
43996;SDS011;34318;45.818;15.964;2023-08-12T04:00:30;2.38;;;2.17;;
43996;SDS011;34318;45.818;15.964;2023-08-12T04:02:57;2.10;;;2.00;;
43996;SDS011;34318;45.818;15.964;2023-08-12T04:05:27;2.33;;;2.22;;
43996;SDS011;34318;45.818;15.964;2023-08-12T04:07:55;2.10;;;2.00;;
43996;SDS011;34318;45.818;15.964;2023-08-12T04:10:22;2.53;;;2.20;;
43996;SDS011;34318;45.818;15.964;2023-08-12T04:12:49;2.10;;;2.00;;
43996;SDS011;34318;45.818;15.964;2023-08-12T04:15:16;2.40;;;2.20;;
43996;SDS011;34318;45.818;15.964;2023-08-12T04:17:44;2.92;;;2.30;;
43996;SDS011;34318;45.818;15.964;2023-08-12T04:20:11;2.20;;;2.10;;
43996;SDS011;34318;45.818;15.964;2023-08-12T04:22:38;3.17;;;2.45;;
43996;SDS011;34318;45.818;15.964;2023-08-12T04:25:06;2.20;;;2.10;;
43996;SDS011;34318;45.818;15.964;2023-08-12T04:27:34;2.40;;;2.20;;
43996;SDS011;34318;45.818;15.964;2023-08-12T04:30:01;2.30;;;2.10;;
43996;SDS011;34318;45.818;15.964;2023-08-12T04:32:28;2.28;;;2.05;;
43996;SDS011;34318;45.818;15.964;2023-08-12T04:34:56;3.33;;;2.03;;
43996;SDS011;34318;45.818;15.964;2023-08-12T04:37:23;2.70;;;2.50;;
43996;SDS011;34318;45.818;15.964;2023-08-12T04:39:50;2.33;;;2.15;;
43996;SDS011;34318;45.818;15.964;2023-08-12T04:42:18;3.13;;;2.05;;
43996;SDS011;34318;45.818;15.964;2023-08-12T04:44:45;2.85;;;2.30;;
43996;SDS011;34318;45.818;15.964;2023-08-12T04:47:12;2.78;;;2.58;;
43996;SDS011;34318;45.818;15.964;2023-08-12T04:49:40;3.50;;;2.92;;
43996;SDS011;34318;45.818;15.964;2023-08-12T04:52:07;2.58;;;2.38;;
43996;SDS011;34318;45.818;15.964;2023-08-12T04:54:34;2.65;;;2.40;;
43996;SDS011;34318;45.818;15.964;2023-08-12T04:57:01;2.25;;;2.08;;
43996;SDS011;34318;45.818;15.964;2023-08-12T04:59:29;2.40;;;2.20;;
43996;SDS011;34318;45.818;15.964;2023-08-12T05:01:56;2.38;;;2.20;;
43996;SDS011;34318;45.818;15.964;2023-08-12T05:04:43;2.42;;;2.17;;
43996;SDS011;34318;45.818;15.964;2023-08-12T05:07:10;2.60;;;2.40;;
43996;SDS011;34318;45.818;15.964;2023-08-12T05:09:37;2.92;;;2.33;;
43996;SDS011;34318;45.818;15.964;2023-08-12T05:12:04;2.50;;;2.22;;
43996;SDS011;34318;45.818;15.964;2023-08-12T05:14:32;2.30;;;2.20;;
43996;SDS011;34318;45.818;15.964;2023-08-12T05:16:59;2.90;;;2.42;;
43996;SDS011;34318;45.818;15.964;2023-08-12T05:19:26;2.90;;;2.65;;
43996;SDS011;34318;45.818;15.964;2023-08-12T05:21:54;3.42;;;2.35;;
43996;SDS011;34318;45.818;15.964;2023-08-12T05:24:21;2.28;;;2.08;;
43996;SDS011;34318;45.818;15.964;2023-08-12T05:26:48;2.55;;;2.35;;
43996;SDS011;34318;45.818;15.964;2023-08-12T05:29:15;2.28;;;2.17;;
43996;SDS011;34318;45.818;15.964;2023-08-12T05:31:43;2.55;;;2.35;;
43996;SDS011;34318;45.818;15.964;2023-08-12T05:34:10;2.40;;;2.20;;
43996;SDS011;34318;45.818;15.964;2023-08-12T05:36:38;2.20;;;2.10;;
43996;SDS011;34318;45.818;15.964;2023-08-12T05:39:05;3.00;;;2.30;;
43996;SDS011;34318;45.818;15.964;2023-08-12T05:41:32;2.67;;;2.47;;
43996;SDS011;34318;45.818;15.964;2023-08-12T05:44:00;2.38;;;2.20;;
43996;SDS011;34318;45.818;15.964;2023-08-12T05:46:27;2.40;;;2.20;;
43996;SDS011;34318;45.818;15.964;2023-08-12T05:48:54;3.00;;;2.70;;
43996;SDS011;34318;45.818;15.964;2023-08-12T05:51:21;2.83;;;2.35;;
43996;SDS011;34318;45.818;15.964;2023-08-12T05:53:49;2.88;;;2.50;;
43996;SDS011;34318;45.818;15.964;2023-08-12T05:56:16;2.42;;;2.22;;
43996;SDS011;34318;45.818;15.964;2023-08-12T05:58:43;3.50;;;2.60;;
43996;SDS011;34318;45.818;15.964;2023-08-12T06:01:10;2.50;;;2.30;;
43996;SDS011;34318;45.818;15.964;2023-08-12T06:03:38;3.30;;;2.55;;
43996;SDS011;34318;45.818;15.964;2023-08-12T06:06:05;3.00;;;2.70;;
43996;SDS011;34318;45.818;15.964;2023-08-12T06:08:32;3.42;;;3.03;;
43996;SDS011;34318;45.818;15.964;2023-08-12T06:11:00;4.45;;;3.05;;
43996;SDS011;34318;45.818;15.964;2023-08-12T06:13:27;5.72;;;4.30;;
43996;SDS011;34318;45.818;15.964;2023-08-12T06:15:54;4.20;;;3.80;;
43996;SDS011;34318;45.818;15.964;2023-08-12T06:18:22;4.10;;;3.28;;
43996;SDS011;34318;45.818;15.964;2023-08-12T06:20:49;4.00;;;3.70;;
43996;SDS011;34318;45.818;15.964;2023-08-12T06:23:17;5.25;;;4.60;;
43996;SDS011;34318;45.818;15.964;2023-08-12T06:25:44;9.88;;;4.78;;
43996;SDS011;34318;45.818;15.964;2023-08-12T06:28:11;10.27;;;5.32;;
43996;SDS011;34318;45.818;15.964;2023-08-12T06:30:38;7.93;;;5.93;;
43996;SDS011;34318;45.818;15.964;2023-08-12T06:33:06;9.85;;;5.65;;
43996;SDS011;34318;45.818;15.964;2023-08-12T06:35:33;6.13;;;5.53;;
43996;SDS011;34318;45.818;15.964;2023-08-12T06:38:00;7.63;;;6.03;;
43996;SDS011;34318;45.818;15.964;2023-08-12T06:40:27;8.20;;;5.03;;
43996;SDS011;34318;45.818;15.964;2023-08-12T06:42:57;7.45;;;5.95;;
43996;SDS011;34318;45.818;15.964;2023-08-12T06:45:24;6.13;;;5.47;;
43996;SDS011;34318;45.818;15.964;2023-08-12T06:47:51;6.70;;;4.50;;
43996;SDS011;34318;45.818;15.964;2023-08-12T06:50:18;5.07;;;4.28;;
43996;SDS011;34318;45.818;15.964;2023-08-12T06:52:46;4.60;;;4.20;;
43996;SDS011;34318;45.818;15.964;2023-08-12T06:55:13;4.20;;;3.80;;
43996;SDS011;34318;45.818;15.964;2023-08-12T06:57:40;5.75;;;4.05;;
43996;SDS011;34318;45.818;15.964;2023-08-12T07:00:08;3.50;;;3.20;;
43996;SDS011;34318;45.818;15.964;2023-08-12T07:02:35;5.38;;;3.78;;
43996;SDS011;34318;45.818;15.964;2023-08-12T07:05:02;4.00;;;3.60;;
43996;SDS011;34318;45.818;15.964;2023-08-12T07:07:30;4.38;;;3.97;;
43996;SDS011;34318;45.818;15.964;2023-08-12T07:09:57;4.20;;;3.80;;
43996;SDS011;34318;45.818;15.964;2023-08-12T07:12:25;4.40;;;3.47;;
43996;SDS011;34318;45.818;15.964;2023-08-12T07:14:52;4.40;;;3.53;;
43996;SDS011;34318;45.818;15.964;2023-08-12T07:17:19;4.47;;;4.07;;
43996;SDS011;34318;45.818;15.964;2023-08-12T07:19:47;4.70;;;4.20;;
43996;SDS011;34318;45.818;15.964;2023-08-12T07:22:14;4.72;;;3.53;;
43996;SDS011;34318;45.818;15.964;2023-08-12T07:24:46;5.47;;;3.88;;
43996;SDS011;34318;45.818;15.964;2023-08-12T07:27:13;5.03;;;3.15;;
43996;SDS011;34318;45.818;15.964;2023-08-12T07:29:41;4.40;;;3.97;;
43996;SDS011;34318;45.818;15.964;2023-08-12T07:32:08;3.80;;;3.35;;
43996;SDS011;34318;45.818;15.964;2023-08-12T07:34:36;3.70;;;3.40;;
43996;SDS011;34318;45.818;15.964;2023-08-12T07:37:03;3.90;;;3.50;;
43996;SDS011;34318;45.818;15.964;2023-08-12T07:39:31;5.50;;;3.88;;
43996;SDS011;34318;45.818;15.964;2023-08-12T07:41:58;4.20;;;3.80;;
43996;SDS011;34318;45.818;15.964;2023-08-12T07:44:25;4.32;;;3.70;;
43996;SDS011;34318;45.818;15.964;2023-08-12T07:46:52;3.72;;;3.42;;
43996;SDS011;34318;45.818;15.964;2023-08-12T07:49:20;3.50;;;3.15;;
43996;SDS011;34318;45.818;15.964;2023-08-12T07:51:47;5.85;;;3.58;;
43996;SDS011;34318;45.818;15.964;2023-08-12T07:54:14;8.52;;;4.07;;
43996;SDS011;34318;45.818;15.964;2023-08-12T07:56:42;5.53;;;3.83;;
43996;SDS011;34318;45.818;15.964;2023-08-12T07:59:09;8.43;;;4.18;;
43996;SDS011;34318;45.818;15.964;2023-08-12T08:01:36;3.83;;;3.25;;
43996;SDS011;34318;45.818;15.964;2023-08-12T08:04:04;3.92;;;3.50;;
43996;SDS011;34318;45.818;15.964;2023-08-12T08:06:32;3.42;;;3.13;;
43996;SDS011;34318;45.818;15.964;2023-08-12T08:08:59;4.88;;;3.42;;
43996;SDS011;34318;45.818;15.964;2023-08-12T08:11:30;6.53;;;3.83;;
43996;SDS011;34318;45.818;15.964;2023-08-12T08:13:58;4.45;;;3.55;;
43996;SDS011;34318;45.818;15.964;2023-08-12T08:16:25;3.67;;;3.38;;
43996;SDS011;34318;45.818;15.964;2023-08-12T08:18:54;6.45;;;3.65;;
43996;SDS011;34318;45.818;15.964;2023-08-12T08:21:23;4.80;;;3.47;;
43996;SDS011;34318;45.818;15.964;2023-08-12T08:23:51;5.13;;;4.22;;
43996;SDS011;34318;45.818;15.964;2023-08-12T08:26:18;15.90;;;14.50;;
43996;SDS011;34318;45.818;15.964;2023-08-12T08:28:45;20.75;;;18.75;;
43996;SDS011;34318;45.818;15.964;2023-08-12T08:31:13;22.40;;;20.20;;
43996;SDS011;34318;45.818;15.964;2023-08-12T08:33:40;18.90;;;17.30;;
43996;SDS011;34318;45.818;15.964;2023-08-12T08:36:10;18.42;;;16.65;;
43996;SDS011;34318;45.818;15.964;2023-08-12T08:38:37;20.40;;;18.38;;
43996;SDS011;34318;45.818;15.964;2023-08-12T08:41:05;16.23;;;14.73;;
43996;SDS011;34318;45.818;15.964;2023-08-12T08:43:33;15.13;;;13.82;;
43996;SDS011;34318;45.818;15.964;2023-08-12T08:46:02;12.93;;;11.52;;
43996;SDS011;34318;45.818;15.964;2023-08-12T08:48:29;11.93;;;10.85;;
43996;SDS011;34318;45.818;15.964;2023-08-12T08:50:56;12.10;;;10.07;;
43996;SDS011;34318;45.818;15.964;2023-08-12T08:53:24;12.48;;;9.32;;
43996;SDS011;34318;45.818;15.964;2023-08-12T08:55:51;9.02;;;7.93;;
43996;SDS011;34318;45.818;15.964;2023-08-12T08:58:26;8.90;;;7.63;;
43996;SDS011;34318;45.818;15.964;2023-08-12T09:00:54;8.93;;;7.63;;
43996;SDS011;34318;45.818;15.964;2023-08-12T09:03:21;10.65;;;7.63;;
43996;SDS011;34318;45.818;15.964;2023-08-12T09:05:49;6.70;;;5.85;;
43996;SDS011;34318;45.818;15.964;2023-08-12T09:08:17;16.63;;;7.10;;
43996;SDS011;34318;45.818;15.964;2023-08-12T09:10:45;9.57;;;6.53;;
43996;SDS011;34318;45.818;15.964;2023-08-12T09:13:13;6.40;;;5.80;;
43996;SDS011;34318;45.818;15.964;2023-08-12T09:15:41;6.70;;;6.10;;
43996;SDS011;34318;45.818;15.964;2023-08-12T09:18:08;6.25;;;5.65;;
43996;SDS011;34318;45.818;15.964;2023-08-12T09:20:36;6.00;;;5.40;;
43996;SDS011;34318;45.818;15.964;2023-08-12T09:23:03;6.03;;;4.97;;
43996;SDS011;34318;45.818;15.964;2023-08-12T09:25:31;5.70;;;4.68;;
43996;SDS011;34318;45.818;15.964;2023-08-12T09:27:59;5.32;;;4.63;;
43996;SDS011;34318;45.818;15.964;2023-08-12T09:30:29;5.70;;;4.80;;
43996;SDS011;34318;45.818;15.964;2023-08-12T09:33:03;4.75;;;4.25;;
43996;SDS011;34318;45.818;15.964;2023-08-12T09:35:37;4.72;;;4.32;;
43996;SDS011;34318;45.818;15.964;2023-08-12T09:38:05;6.00;;;4.82;;
43996;SDS011;34318;45.818;15.964;2023-08-12T09:40:33;12.73;;;11.50;;
43996;SDS011;34318;45.818;15.964;2023-08-12T09:43:01;18.30;;;16.60;;
43996;SDS011;34318;45.818;15.964;2023-08-12T09:45:30;18.63;;;15.95;;
43996;SDS011;34318;45.818;15.964;2023-08-12T09:47:57;19.90;;;18.10;;
43996;SDS011;34318;45.818;15.964;2023-08-12T09:50:25;27.13;;;24.35;;
43996;SDS011;34318;45.818;15.964;2023-08-12T09:52:53;31.83;;;28.80;;
43996;SDS011;34318;45.818;15.964;2023-08-12T09:55:22;27.10;;;24.65;;
43996;SDS011;34318;45.818;15.964;2023-08-12T09:57:50;21.60;;;19.73;;
43996;SDS011;34318;45.818;15.964;2023-08-12T10:00:19;18.48;;;16.92;;
43996;SDS011;34318;45.818;15.964;2023-08-12T10:02:48;16.17;;;14.57;;
43996;SDS011;34318;45.818;15.964;2023-08-12T10:05:21;15.68;;;14.38;;
43996;SDS011;34318;45.818;15.964;2023-08-12T10:07:49;15.68;;;13.57;;
43996;SDS011;34318;45.818;15.964;2023-08-12T10:10:17;14.13;;;12.73;;
43996;SDS011;34318;45.818;15.964;2023-08-12T10:12:45;13.05;;;11.13;;
43996;SDS011;34318;45.818;15.964;2023-08-12T10:15:14;12.43;;;10.50;;
43996;SDS011;34318;45.818;15.964;2023-08-12T10:17:42;11.52;;;9.85;;
43996;SDS011;34318;45.818;15.964;2023-08-12T10:20:16;9.63;;;8.65;;
43996;SDS011;34318;45.818;15.964;2023-08-12T10:22:47;9.40;;;7.70;;
43996;SDS011;34318;45.818;15.964;2023-08-12T10:25:18;9.77;;;8.32;;
43996;SDS011;34318;45.818;15.964;2023-08-12T10:27:50;12.35;;;7.72;;
43996;SDS011;34318;45.818;15.964;2023-08-12T10:30:20;11.75;;;7.43;;
43996;SDS011;34318;45.818;15.964;2023-08-12T10:32:49;9.48;;;6.72;;
43996;SDS011;34318;45.818;15.964;2023-08-12T10:35:17;10.60;;;9.57;;
43996;SDS011;34318;45.818;15.964;2023-08-12T10:37:47;18.98;;;16.92;;
43996;SDS011;34318;45.818;15.964;2023-08-12T10:40:19;19.80;;;16.55;;
43996;SDS011;34318;45.818;15.964;2023-08-12T10:42:48;17.88;;;16.38;;
43996;SDS011;34318;45.818;15.964;2023-08-12T10:45:17;14.95;;;13.45;;
43996;SDS011;34318;45.818;15.964;2023-08-12T10:47:51;12.80;;;11.63;;
43996;SDS011;34318;45.818;15.964;2023-08-12T10:50:21;11.05;;;10.05;;
43996;SDS011;34318;45.818;15.964;2023-08-12T10:52:52;10.05;;;9.10;;
43996;SDS011;34318;45.818;15.964;2023-08-12T10:55:23;11.18;;;10.07;;
43996;SDS011;34318;45.818;15.964;2023-08-12T10:57:54;10.32;;;9.20;;
43996;SDS011;34318;45.818;15.964;2023-08-12T11:00:24;10.20;;;9.10;;
43996;SDS011;34318;45.818;15.964;2023-08-12T11:02:54;8.70;;;7.85;;
43996;SDS011;34318;45.818;15.964;2023-08-12T11:05:23;8.38;;;7.57;;
43996;SDS011;34318;45.818;15.964;2023-08-12T11:07:58;11.68;;;8.35;;
43996;SDS011;34318;45.818;15.964;2023-08-12T11:10:30;13.15;;;11.98;;
43996;SDS011;34318;45.818;15.964;2023-08-12T11:13:00;17.73;;;16.02;;
43996;SDS011;34318;45.818;15.964;2023-08-12T11:15:33;15.32;;;13.93;;
43996;SDS011;34318;45.818;15.964;2023-08-12T11:18:01;14.35;;;12.40;;
43996;SDS011;34318;45.818;15.964;2023-08-12T11:20:31;13.07;;;11.77;;
43996;SDS011;34318;45.818;15.964;2023-08-12T11:22:59;12.85;;;10.57;;
43996;SDS011;34318;45.818;15.964;2023-08-12T11:25:30;11.13;;;9.98;;
43996;SDS011;34318;45.818;15.964;2023-08-12T11:27:58;10.38;;;9.27;;
43996;SDS011;34318;45.818;15.964;2023-08-12T11:30:29;10.30;;;9.25;;
43996;SDS011;34318;45.818;15.964;2023-08-12T11:32:59;14.13;;;10.63;;
43996;SDS011;34318;45.818;15.964;2023-08-12T11:35:26;20.08;;;13.70;;
43996;SDS011;34318;45.818;15.964;2023-08-12T11:37:55;28.52;;;16.40;;
43996;SDS011;34318;45.818;15.964;2023-08-12T11:40:24;27.65;;;15.63;;
43996;SDS011;34318;45.818;15.964;2023-08-12T11:42:53;22.98;;;15.50;;
43996;SDS011;34318;45.818;15.964;2023-08-12T11:45:22;24.75;;;15.50;;
43996;SDS011;34318;45.818;15.964;2023-08-12T11:47:51;27.27;;;14.65;;
43996;SDS011;34318;45.818;15.964;2023-08-12T11:50:21;17.73;;;13.02;;
43996;SDS011;34318;45.818;15.964;2023-08-12T11:52:50;18.92;;;13.13;;
43996;SDS011;34318;45.818;15.964;2023-08-12T11:55:18;18.83;;;12.40;;
43996;SDS011;34318;45.818;15.964;2023-08-12T11:57:46;20.13;;;14.68;;
43996;SDS011;34318;45.818;15.964;2023-08-12T12:00:14;20.55;;;15.00;;
43996;SDS011;34318;45.818;15.964;2023-08-12T12:02:47;15.73;;;13.82;;
43996;SDS011;34318;45.818;15.964;2023-08-12T12:05:16;18.27;;;13.80;;
43996;SDS011;34318;45.818;15.964;2023-08-12T12:07:48;16.45;;;13.13;;
43996;SDS011;34318;45.818;15.964;2023-08-12T12:10:20;15.63;;;12.25;;
43996;SDS011;34318;45.818;15.964;2023-08-12T12:12:48;21.58;;;13.75;;
43996;SDS011;34318;45.818;15.964;2023-08-12T12:15:16;20.38;;;15.70;;
43996;SDS011;34318;45.818;15.964;2023-08-12T12:17:47;18.25;;;16.38;;
43996;SDS011;34318;45.818;15.964;2023-08-12T12:20:16;22.63;;;20.38;;
43996;SDS011;34318;45.818;15.964;2023-08-12T12:22:45;23.55;;;21.13;;
43996;SDS011;34318;45.818;15.964;2023-08-12T12:25:13;23.05;;;20.65;;
43996;SDS011;34318;45.818;15.964;2023-08-12T12:27:42;22.20;;;20.10;;
43996;SDS011;34318;45.818;15.964;2023-08-12T12:30:12;22.30;;;19.73;;
43996;SDS011;34318;45.818;15.964;2023-08-12T12:32:40;20.58;;;18.55;;
43996;SDS011;34318;45.818;15.964;2023-08-12T12:35:07;20.42;;;17.55;;
43996;SDS011;34318;45.818;15.964;2023-08-12T12:37:35;20.73;;;18.10;;
43996;SDS011;34318;45.818;15.964;2023-08-12T12:40:03;21.90;;;17.83;;
43996;SDS011;34318;45.818;15.964;2023-08-12T12:42:32;19.35;;;17.35;;
43996;SDS011;34318;45.818;15.964;2023-08-12T12:44:59;19.02;;;16.65;;
43996;SDS011;34318;45.818;15.964;2023-08-12T12:47:26;20.63;;;16.83;;
43996;SDS011;34318;45.818;15.964;2023-08-12T12:49:53;17.27;;;15.48;;
43996;SDS011;34318;45.818;15.964;2023-08-12T12:52:21;16.60;;;14.70;;
43996;SDS011;34318;45.818;15.964;2023-08-12T12:54:48;17.63;;;15.75;;
43996;SDS011;34318;45.818;15.964;2023-08-12T12:57:15;19.13;;;16.27;;
43996;SDS011;34318;45.818;15.964;2023-08-12T12:59:43;21.25;;;16.00;;
43996;SDS011;34318;45.818;15.964;2023-08-12T13:02:10;17.95;;;15.30;;
43996;SDS011;34318;45.818;15.964;2023-08-12T13:04:38;15.68;;;14.07;;
43996;SDS011;34318;45.818;15.964;2023-08-12T13:07:08;18.73;;;15.63;;
43996;SDS011;34318;45.818;15.964;2023-08-12T13:09:36;19.42;;;15.32;;
43996;SDS011;34318;45.818;15.964;2023-08-12T13:12:04;20.42;;;14.88;;
43996;SDS011;34318;45.818;15.964;2023-08-12T13:14:32;16.50;;;14.60;;
43996;SDS011;34318;45.818;15.964;2023-08-12T13:16:59;17.40;;;13.88;;
43996;SDS011;34318;45.818;15.964;2023-08-12T13:19:26;16.50;;;14.40;;
43996;SDS011;34318;45.818;15.964;2023-08-12T13:21:54;15.95;;;13.45;;
43996;SDS011;34318;45.818;15.964;2023-08-12T13:24:21;16.02;;;13.52;;
43996;SDS011;34318;45.818;15.964;2023-08-12T13:26:48;17.13;;;13.75;;
43996;SDS011;34318;45.818;15.964;2023-08-12T13:29:17;19.05;;;12.77;;
43996;SDS011;34318;45.818;15.964;2023-08-12T13:31:44;16.67;;;13.02;;
43996;SDS011;34318;45.818;15.964;2023-08-12T13:34:12;19.67;;;13.38;;
43996;SDS011;34318;45.818;15.964;2023-08-12T13:36:39;15.38;;;12.50;;
43996;SDS011;34318;45.818;15.964;2023-08-12T13:39:06;17.35;;;13.48;;
43996;SDS011;34318;45.818;15.964;2023-08-12T13:41:34;14.88;;;12.98;;
43996;SDS011;34318;45.818;15.964;2023-08-12T13:44:01;15.88;;;12.77;;
43996;SDS011;34318;45.818;15.964;2023-08-12T13:46:29;14.68;;;13.00;;
43996;SDS011;34318;45.818;15.964;2023-08-12T13:48:56;14.48;;;12.50;;
43996;SDS011;34318;45.818;15.964;2023-08-12T13:51:24;14.55;;;12.20;;
43996;SDS011;34318;45.818;15.964;2023-08-12T13:53:51;14.52;;;12.60;;
43996;SDS011;34318;45.818;15.964;2023-08-12T13:56:18;15.35;;;13.13;;
43996;SDS011;34318;45.818;15.964;2023-08-12T13:58:46;15.45;;;13.38;;
43996;SDS011;34318;45.818;15.964;2023-08-12T14:01:14;13.82;;;12.20;;
43996;SDS011;34318;45.818;15.964;2023-08-12T14:03:41;16.55;;;12.15;;
43996;SDS011;34318;45.818;15.964;2023-08-12T14:06:08;16.00;;;13.40;;
43996;SDS011;34318;45.818;15.964;2023-08-12T14:08:36;17.67;;;13.95;;
43996;SDS011;34318;45.818;15.964;2023-08-12T14:11:03;15.27;;;13.45;;
43996;SDS011;34318;45.818;15.964;2023-08-12T14:13:30;15.98;;;12.88;;
43996;SDS011;34318;45.818;15.964;2023-08-12T14:15:57;16.50;;;13.88;;
43996;SDS011;34318;45.818;15.964;2023-08-12T14:18:25;17.25;;;12.85;;
43996;SDS011;34318;45.818;15.964;2023-08-12T14:20:52;18.33;;;13.48;;
43996;SDS011;34318;45.818;15.964;2023-08-12T14:23:19;19.20;;;12.68;;
43996;SDS011;34318;45.818;15.964;2023-08-12T14:25:46;19.30;;;13.68;;
43996;SDS011;34318;45.818;15.964;2023-08-12T14:28:14;17.88;;;14.07;;
43996;SDS011;34318;45.818;15.964;2023-08-12T14:30:41;18.67;;;12.50;;
43996;SDS011;34318;45.818;15.964;2023-08-12T14:33:09;17.73;;;13.73;;
43996;SDS011;34318;45.818;15.964;2023-08-12T14:35:37;15.27;;;12.07;;
43996;SDS011;34318;45.818;15.964;2023-08-12T14:38:05;19.80;;;12.48;;